createdAt,value
2023-01-08T16:02:46.656Z,1.87
2023-01-08T16:05:14.718Z,2.00
2023-01-08T16:07:42.469Z,2.00
2023-01-08T16:10:10.647Z,2.10
2023-01-08T16:12:38.400Z,2.00
2023-01-08T16:15:08.147Z,2.60
2023-01-08T16:17:36.651Z,2.97
2023-01-08T16:20:06.112Z,2.40
2023-01-08T16:22:33.847Z,2.10
2023-01-08T16:25:01.631Z,2.20
2023-01-08T16:27:29.395Z,2.40
2023-01-08T16:29:57.084Z,2.10
2023-01-08T16:32:24.807Z,2.10
2023-01-08T16:34:54.368Z,2.90
2023-01-08T16:37:23.561Z,2.50
2023-01-08T16:39:51.378Z,2.27
2023-01-08T16:42:19.120Z,2.60
2023-01-08T16:44:46.844Z,2.33
2023-01-08T16:47:14.538Z,2.90
2023-01-08T16:49:42.293Z,2.27
2023-01-08T16:52:10.496Z,3.40
2023-01-08T16:54:39.581Z,2.60
2023-01-08T16:57:07.289Z,1.70
2023-01-08T16:59:34.993Z,1.60
2023-01-08T17:02:02.796Z,1.40
2023-01-08T17:04:30.859Z,1.40
2023-01-08T17:06:58.552Z,1.73
2023-01-08T17:09:26.399Z,1.90
2023-01-08T17:11:55.516Z,1.50
2023-01-08T17:14:23.365Z,1.20
2023-01-08T17:16:51.069Z,1.00
2023-01-08T17:19:18.853Z,1.00
2023-01-08T17:21:48.104Z,0.80
2023-01-08T17:24:15.840Z,0.70
2023-01-08T17:26:43.620Z,0.70
2023-01-08T17:29:12.734Z,1.07
2023-01-08T17:31:43.640Z,1.20
2023-01-08T17:34:13.234Z,1.00
2023-01-08T17:36:41.011Z,1.30
2023-01-08T17:39:08.816Z,1.30
2023-01-08T17:41:54.227Z,1.40
2023-01-08T17:44:23.382Z,1.10
2023-01-08T17:46:51.088Z,1.50
2023-01-08T17:49:19.317Z,1.47
2023-01-08T17:51:47.192Z,1.00
2023-01-08T17:54:16.137Z,1.00
2023-01-08T17:56:44.283Z,0.90
2023-01-08T17:59:13.662Z,0.80
2023-01-08T18:01:45.000Z,1.00
2023-01-08T18:04:12.984Z,0.97
2023-01-08T18:06:40.959Z,0.73
2023-01-08T18:09:10.047Z,0.80
2023-01-08T18:11:37.986Z,0.80
2023-01-08T18:14:06.042Z,1.10
2023-01-08T18:16:33.924Z,1.40
2023-01-08T18:19:03.118Z,1.20
2023-01-08T18:21:30.899Z,1.10
2023-01-08T18:23:58.583Z,0.73
2023-01-08T18:26:26.775Z,0.70
2023-01-08T18:28:54.625Z,0.80
2023-01-08T18:31:22.686Z,0.90
2023-01-08T18:33:50.899Z,0.80
2023-01-08T18:36:20.488Z,0.97
2023-01-08T18:38:48.425Z,0.90
2023-01-08T18:41:37.415Z,1.00
2023-01-08T18:44:06.854Z,0.70
2023-01-08T18:46:34.939Z,1.03
2023-01-08T18:49:02.780Z,0.90
2023-01-08T18:51:32.064Z,0.80
2023-01-08T18:54:00.019Z,1.30
2023-01-08T18:56:29.155Z,1.90
2023-01-08T18:58:56.961Z,2.90
2023-01-08T19:01:25.124Z,3.00
2023-01-08T19:03:52.899Z,3.60
2023-01-08T19:06:20.608Z,3.53
2023-01-08T19:08:49.728Z,3.50
2023-01-08T19:11:17.711Z,2.80
2023-01-08T19:13:45.691Z,2.60
2023-01-08T19:16:14.180Z,3.10
2023-01-08T19:18:42.045Z,3.40
2023-01-08T19:21:10.724Z,3.60
2023-01-08T19:23:38.419Z,3.27
2023-01-08T19:26:08.013Z,3.10
2023-01-08T19:28:35.768Z,2.80
2023-01-08T19:31:03.768Z,3.70
2023-01-08T19:33:31.484Z,3.97
2023-01-08T19:36:01.480Z,3.10
2023-01-08T19:38:29.368Z,3.20
2023-01-08T19:40:58.519Z,2.60
2023-01-08T19:43:41.917Z,2.00
2023-01-08T19:46:11.836Z,2.70
2023-01-08T19:48:41.053Z,2.80
2023-01-08T19:51:09.554Z,3.90
2023-01-08T19:53:37.682Z,2.80
2023-01-08T19:56:05.551Z,2.70
2023-01-08T19:58:34.945Z,3.37
2023-01-08T20:01:05.831Z,4.00
2023-01-08T20:03:33.921Z,4.10
2023-01-08T20:06:01.660Z,3.80
2023-01-08T20:08:29.524Z,4.43
2023-01-08T20:10:57.422Z,4.40
2023-01-08T20:13:25.116Z,4.07
2023-01-08T20:15:58.044Z,4.60
2023-01-08T20:18:25.956Z,3.20
2023-01-08T20:20:53.809Z,4.00
2023-01-08T20:23:22.006Z,3.60
2023-01-08T20:25:54.991Z,3.60
2023-01-08T20:28:22.714Z,4.40
2023-01-08T20:30:50.614Z,3.67
2023-01-08T20:33:19.799Z,4.90
2023-01-08T20:35:47.543Z,3.60
2023-01-08T20:38:15.254Z,3.50
2023-01-08T20:40:42.988Z,2.60
2023-01-08T20:43:10.685Z,3.00
2023-01-08T20:45:40.658Z,4.00
2023-01-08T20:48:09.281Z,3.30
2023-01-08T20:50:39.716Z,3.30
2023-01-08T20:53:07.529Z,3.00
2023-01-08T20:55:37.271Z,3.10
2023-01-08T20:58:04.997Z,2.93
2023-01-08T21:00:32.686Z,4.00
2023-01-08T21:03:00.595Z,2.97
2023-01-08T21:05:28.325Z,3.10
2023-01-08T21:07:57.518Z,3.00
2023-01-08T21:10:25.307Z,3.33
2023-01-08T21:12:53.327Z,3.50
2023-01-08T21:15:21.753Z,3.50
2023-01-08T21:17:49.763Z,3.60
2023-01-08T21:20:18.055Z,3.70
2023-01-08T21:22:45.941Z,3.70
2023-01-08T21:25:15.039Z,4.00
2023-01-08T21:27:42.744Z,4.30
2023-01-08T21:30:11.201Z,3.57
2023-01-08T21:32:38.903Z,4.07
2023-01-08T21:35:06.810Z,3.80
2023-01-08T21:37:34.488Z,3.87
2023-01-08T21:40:02.196Z,3.80
2023-01-08T21:42:48.925Z,4.10
2023-01-08T21:45:25.904Z,4.10
2023-01-08T21:47:56.333Z,4.37
2023-01-08T21:50:26.045Z,4.20
2023-01-08T21:53:11.367Z,4.47
2023-01-08T21:55:39.081Z,3.90
2023-01-08T21:58:08.169Z,3.90
2023-01-08T22:00:35.913Z,4.87
2023-01-08T22:03:03.673Z,4.80
2023-01-08T22:05:31.379Z,5.47
2023-01-08T22:07:59.166Z,4.57
